createdAt,value
2019-05-18T00:02:00.524Z,96753.05
2019-05-18T00:04:34.683Z,96751.50
2019-05-18T00:07:03.395Z,96750.00
2019-05-18T00:09:32.155Z,96748.66
2019-05-18T00:12:01.879Z,96752.95
2019-05-18T00:14:39.719Z,96756.97
2019-05-18T00:17:24.561Z,96751.75
2019-05-18T00:20:02.195Z,96755.67
2019-05-18T00:22:30.873Z,96752.54
2019-05-18T00:24:59.617Z,96756.62
2019-05-18T00:27:28.391Z,96752.52
2019-05-18T00:29:57.077Z,96750.84
2019-05-18T00:32:28.472Z,96748.81
2019-05-18T00:35:04.945Z,96751.95
2019-05-18T00:37:37.787Z,96753.36
2019-05-18T00:40:09.999Z,96747.88
2019-05-18T00:42:43.082Z,96748.25
2019-05-18T00:45:17.115Z,96742.92
2019-05-18T00:47:49.934Z,96741.63
2019-05-18T00:50:18.755Z,96733.68
2019-05-18T00:52:48.986Z,96737.49
2019-05-18T00:55:21.637Z,96743.87
2019-05-18T00:57:52.271Z,96744.18
2019-05-18T01:00:32.337Z,96739.95
2019-05-18T01:03:08.085Z,96745.80
2019-05-18T01:05:43.873Z,96745.80
2019-05-18T01:08:14.052Z,96739.76
2019-05-18T01:10:43.877Z,96732.28
2019-05-18T01:13:12.992Z,96729.92
2019-05-18T01:15:41.706Z,96719.32
2019-05-18T01:18:13.270Z,96723.78
2019-05-18T01:20:42.097Z,96731.49
2019-05-18T01:23:17.677Z,96732.41
2019-05-18T01:25:47.913Z,96730.76
2019-05-18T01:28:23.908Z,96736.51
2019-05-18T01:30:50.269Z,96729.16
2019-05-18T01:33:20.418Z,96730.20
2019-05-18T01:35:53.825Z,96739.70
2019-05-18T01:38:29.407Z,96740.84
2019-05-18T01:41:02.599Z,96746.35
2019-05-18T01:43:35.981Z,96749.72
2019-05-18T01:46:08.949Z,96750.84
2019-05-18T01:48:40.689Z,96752.76
2019-05-18T01:51:12.033Z,96749.05
2019-05-18T01:53:43.065Z,96748.96
2019-05-18T01:56:20.581Z,96741.73
2019-05-18T01:58:49.414Z,96745.16
2019-05-18T02:01:18.071Z,96746.30
2019-05-18T02:03:49.833Z,96743.63
2019-05-18T02:06:18.603Z,96744.62
2019-05-18T02:08:47.338Z,96743.83
2019-05-18T02:11:16.063Z,96743.95
2019-05-18T02:13:47.816Z,96749.19
2019-05-18T02:16:16.534Z,96745.22
2019-05-18T02:18:45.121Z,96738.98
2019-05-18T02:21:16.892Z,96739.48
2019-05-18T02:23:45.658Z,96732.94
2019-05-18T02:26:17.505Z,96735.02
2019-05-18T02:28:52.850Z,96732.27
2019-05-18T02:31:25.776Z,96727.44
2019-05-18T02:33:52.089Z,96722.47
2019-05-18T02:36:25.073Z,96721.31
2019-05-18T02:38:57.686Z,96724.91
2019-05-18T02:41:29.097Z,96719.80
2019-05-18T02:44:08.033Z,96724.91
2019-05-18T02:46:28.234Z,96726.64
2019-05-18T02:48:57.013Z,96726.27
2019-05-18T02:51:28.586Z,96724.46
2019-05-18T02:53:57.304Z,96726.13
2019-05-18T02:56:26.060Z,96725.70
2019-05-18T02:58:54.799Z,96724.05
2019-05-18T03:01:23.467Z,96728.77
2019-05-18T03:03:53.582Z,96729.98
2019-05-18T03:06:26.611Z,96731.86
2019-05-18T03:08:55.456Z,96735.14
2019-05-18T03:11:24.230Z,96738.69
2019-05-18T03:13:52.902Z,96742.69
2019-05-18T03:16:29.049Z,96749.01
2019-05-18T03:19:08.215Z,96736.89
2019-05-18T03:21:29.754Z,96744.00
2019-05-18T03:24:14.976Z,96745.94
2019-05-18T03:26:47.920Z,96745.95
2019-05-18T03:29:35.178Z,96744.50
2019-05-18T03:32:03.828Z,96740.56
2019-05-18T03:34:34.025Z,96737.70
2019-05-18T03:37:04.377Z,96744.53
2019-05-18T03:39:33.142Z,96749.34
2019-05-18T03:42:03.272Z,96752.15
2019-05-18T03:44:32.064Z,96752.98
2019-05-18T03:47:09.527Z,96752.84
2019-05-18T03:49:48.783Z,96755.86
2019-05-18T03:52:23.388Z,96756.38
2019-05-18T03:54:52.794Z,96758.58
2019-05-18T03:57:21.550Z,96767.25
2019-05-18T03:59:50.273Z,96764.43
2019-05-18T04:02:20.660Z,96767.16
2019-05-18T04:04:51.875Z,96764.17
2019-05-18T04:07:20.604Z,96760.89
2019-05-18T04:09:55.857Z,96763.28
2019-05-18T04:12:31.554Z,96764.95
2019-05-18T04:15:01.986Z,96768.70
2019-05-18T04:17:30.668Z,96770.94
2019-05-18T04:20:00.777Z,96769.03
2019-05-18T04:22:29.552Z,96765.67
2019-05-18T04:25:04.347Z,96763.66
2019-05-18T04:27:33.110Z,96760.58
2019-05-18T04:30:06.184Z,96762.81
2019-05-18T04:32:37.926Z,96755.34
2019-05-18T04:35:09.672Z,96764.60
2019-05-18T04:37:38.434Z,96749.09
2019-05-18T04:40:09.192Z,96746.87
2019-05-18T04:42:37.828Z,96747.52
2019-05-18T04:45:13.371Z,96757.59
2019-05-18T04:47:48.490Z,96764.13
2019-05-18T04:50:16.042Z,96763.92
2019-05-18T04:52:46.225Z,96757.05
2019-05-18T04:55:14.894Z,96749.88
2019-05-18T04:57:43.544Z,96756.31
2019-05-18T05:00:12.747Z,96757.84
2019-05-18T05:02:44.136Z,96753.17
2019-05-18T05:05:17.061Z,96757.11
2019-05-18T05:07:47.012Z,96744.94
2019-05-18T05:10:15.943Z,96740.69
2019-05-18T05:12:47.743Z,96742.70
2019-05-18T05:15:16.446Z,96736.34
2019-05-18T05:17:45.171Z,96738.19
2019-05-18T05:20:19.595Z,96735.81
2019-05-18T05:22:44.605Z,96740.58
2019-05-18T05:25:13.307Z,96748.45
2019-05-18T05:27:42.112Z,96746.97
2019-05-18T05:30:15.961Z,96741.89
2019-05-18T05:32:46.917Z,96747.64
2019-05-18T05:35:15.789Z,96748.95
2019-05-18T05:37:44.464Z,96750.16
2019-05-18T05:40:13.399Z,96750.03
2019-05-18T05:42:42.212Z,96755.47
2019-05-18T05:45:11.359Z,96758.80
2019-05-18T05:47:39.952Z,96763.84
2019-05-18T05:50:15.920Z,96766.84
2019-05-18T05:52:51.574Z,96761.94
2019-05-18T05:55:22.225Z,96765.52
2019-05-18T05:57:53.142Z,96768.17
2019-05-18T06:00:22.290Z,96766.02
2019-05-18T06:02:53.136Z,96761.10
2019-05-18T06:05:27.479Z,96759.40
2019-05-18T06:07:56.193Z,96756.86
2019-05-18T06:10:24.861Z,96759.23
2019-05-18T06:12:53.604Z,96763.77
2019-05-18T06:15:22.284Z,96763.77
2019-05-18T06:17:54.032Z,96761.59
2019-05-18T06:20:24.272Z,96769.33
2019-05-18T06:23:00.565Z,96768.27
2019-05-18T06:25:34.084Z,96755.92
2019-05-18T06:28:03.790Z,96763.73
2019-05-18T06:30:32.516Z,96764.50
2019-05-18T06:33:02.615Z,96766.09
2019-05-18T06:35:35.378Z,96764.06
2019-05-18T06:38:08.272Z,96759.16
2019-05-18T06:40:36.907Z,96760.20
2019-05-18T06:43:05.733Z,96760.24
2019-05-18T06:45:34.497Z,96760.55
2019-05-18T06:48:07.475Z,96767.19
2019-05-18T06:50:37.732Z,96772.61
2019-05-18T06:53:09.034Z,96773.80
2019-05-18T06:56:02.039Z,96764.58
2019-05-18T06:58:31.301Z,96760.66
2019-05-18T07:01:12.209Z,96764.41
2019-05-18T07:03:40.918Z,96764.42
2019-05-18T07:06:16.523Z,96762.89
2019-05-18T07:08:45.253Z,96769.41
2019-05-18T07:11:16.511Z,96758.13
2019-05-18T07:13:51.301Z,96758.48
2019-05-18T07:16:32.385Z,96753.73
2019-05-18T07:19:01.112Z,96751.11
2019-05-18T07:21:29.852Z,96748.06
2019-05-18T07:23:59.752Z,96740.01
2019-05-18T07:26:28.708Z,96743.72
2019-05-18T07:28:57.585Z,96732.70
2019-05-18T07:31:26.235Z,96728.81
2019-05-18T07:33:56.583Z,96727.81
2019-05-18T07:36:28.000Z,96727.03
2019-05-18T07:38:56.644Z,96728.64
2019-05-18T07:41:28.418Z,96731.06
2019-05-18T07:43:57.100Z,96727.13
2019-05-18T07:46:28.696Z,96716.27
2019-05-18T07:48:57.506Z,96714.76
2019-05-18T07:51:36.686Z,96712.93
2019-05-18T07:53:56.609Z,96705.79
2019-05-18T07:56:28.083Z,96708.11
2019-05-18T07:59:02.010Z,96697.39
2019-05-18T08:01:30.705Z,96697.81
2019-05-18T08:04:02.827Z,96699.15
2019-05-18T08:06:31.492Z,96695.97
2019-05-18T08:09:00.135Z,96689.49
2019-05-18T08:11:28.849Z,96688.73
2019-05-18T08:14:04.080Z,96688.59
2019-05-18T08:16:32.920Z,96680.88
2019-05-18T08:19:01.637Z,96679.57
2019-05-18T08:21:30.448Z,96674.94
2019-05-18T08:24:02.241Z,96676.04
2019-05-18T08:26:31.089Z,96674.02
2019-05-18T08:28:59.839Z,96664.48
2019-05-18T08:31:37.055Z,96664.13
2019-05-18T08:34:05.879Z,96660.45
2019-05-18T08:36:36.156Z,96655.08
2019-05-18T08:39:06.309Z,96651.56
2019-05-18T08:41:37.654Z,96637.53
2019-05-18T08:44:09.278Z,96640.70
2019-05-18T08:46:40.637Z,96630.48
2019-05-18T08:49:09.370Z,96632.44
2019-05-18T08:51:39.848Z,96614.08
2019-05-18T08:54:15.179Z,96624.00
2019-05-18T08:56:43.686Z,96618.17
2019-05-18T08:59:16.435Z,96614.92
2019-05-18T09:01:45.115Z,96617.52
2019-05-18T09:04:15.273Z,96619.14
2019-05-18T09:06:45.122Z,96613.45
2019-05-18T09:09:13.811Z,96616.11
2019-05-18T09:11:45.404Z,96617.63
2019-05-18T09:14:14.088Z,96608.33
2019-05-18T09:16:42.738Z,96603.05
2019-05-18T09:19:11.446Z,96605.12
2019-05-18T09:21:40.237Z,96600.70
2019-05-18T09:24:09.069Z,96598.41
2019-05-18T09:26:37.881Z,96587.91
2019-05-18T09:29:06.596Z,96596.41
2019-05-18T09:31:35.365Z,96591.05
2019-05-18T09:34:04.219Z,96586.83
2019-05-18T09:36:32.934Z,96583.64
2019-05-18T09:39:01.685Z,96572.13
2019-05-18T09:41:30.423Z,96573.73
2019-05-18T09:43:58.995Z,96572.48
2019-05-18T09:46:27.867Z,96569.84
2019-05-18T09:48:56.717Z,96568.39
2019-05-18T09:51:25.571Z,96567.92
2019-05-18T09:53:54.195Z,96566.95
2019-05-18T09:56:22.906Z,96554.64
2019-05-18T09:58:51.678Z,96559.02
2019-05-18T10:01:20.499Z,96551.93
2019-05-18T10:03:49.457Z,96551.44
2019-05-18T10:06:18.132Z,96556.13
2019-05-18T10:08:46.781Z,96540.84
2019-05-18T10:11:15.701Z,96549.83
2019-05-18T10:13:45.926Z,96545.13
2019-05-18T10:16:14.766Z,96538.52
2019-05-18T10:18:43.507Z,96531.98
2019-05-18T10:21:12.291Z,96534.50
2019-05-18T10:23:40.999Z,96534.44
2019-05-18T10:26:09.780Z,96523.15
2019-05-18T10:28:38.647Z,96524.92
2019-05-18T10:31:07.377Z,96517.47
2019-05-18T10:33:36.240Z,96514.19
2019-05-18T10:36:05.184Z,96509.22
2019-05-18T10:38:33.777Z,96513.59
2019-05-18T10:41:02.817Z,96512.09
2019-05-18T10:43:34.318Z,96508.14
2019-05-18T10:46:03.155Z,96506.55
2019-05-18T10:48:31.928Z,96505.17
2019-05-18T10:51:00.660Z,96504.33
2019-05-18T10:53:29.397Z,96498.15
2019-05-18T10:55:58.194Z,96498.88
2019-05-18T10:58:27.004Z,96502.30
2019-05-18T11:00:55.748Z,96497.16
2019-05-18T11:03:24.601Z,96493.33
2019-05-18T11:05:53.345Z,96496.83
2019-05-18T11:08:22.154Z,96487.48
2019-05-18T11:10:50.917Z,96485.46
2019-05-18T11:13:19.744Z,96487.19
2019-05-18T11:15:48.522Z,96482.66
2019-05-18T11:18:17.229Z,96478.81
2019-05-18T11:20:45.976Z,96478.09
2019-05-18T11:23:14.644Z,96478.19
2019-05-18T11:25:43.398Z,96480.41
2019-05-18T11:28:12.169Z,96474.97
2019-05-18T11:30:40.919Z,96476.81
2019-05-18T11:33:09.693Z,96477.94
2019-05-18T11:35:38.514Z,96472.97
2019-05-18T11:38:07.234Z,96473.98
2019-05-18T11:40:35.916Z,96469.72
2019-05-18T11:43:04.622Z,96462.98
2019-05-18T11:45:33.917Z,96474.82
2019-05-18T11:48:02.596Z,96464.75
2019-05-18T11:50:31.364Z,96463.97
2019-05-18T11:53:00.122Z,96463.78
2019-05-18T11:55:28.782Z,96463.42
2019-05-18T11:57:57.487Z,96461.43
2019-05-18T12:00:26.695Z,96451.77
2019-05-18T12:02:55.444Z,96451.43
2019-05-18T12:05:24.162Z,96454.41
2019-05-18T12:07:52.742Z,96445.62
2019-05-18T12:10:21.677Z,96442.98
2019-05-18T12:12:50.422Z,96438.91
2019-05-18T12:15:19.396Z,96435.66
2019-05-18T12:17:48.198Z,96437.59
2019-05-18T12:20:17.480Z,96435.94
2019-05-18T12:22:46.136Z,96434.95
2019-05-18T12:25:14.902Z,96434.11
2019-05-18T12:27:45.111Z,96429.27
2019-05-18T12:30:14.739Z,96425.06
2019-05-18T12:32:43.526Z,96425.80
2019-05-18T12:35:12.835Z,96421.91
2019-05-18T12:37:41.478Z,96425.17
2019-05-18T12:40:10.848Z,96418.06
2019-05-18T12:42:39.572Z,96432.59
2019-05-18T12:45:09.529Z,96418.89
2019-05-18T12:47:38.185Z,96411.16
2019-05-18T12:50:08.222Z,96417.77
2019-05-18T12:52:37.087Z,96408.09
2019-05-18T12:55:07.480Z,96396.25
2019-05-18T12:57:36.673Z,96399.91
2019-05-18T13:00:10.662Z,96387.12
2019-05-18T13:02:39.393Z,96388.22
2019-05-18T13:05:09.204Z,96389.02
2019-05-18T13:07:37.845Z,96391.69
2019-05-18T13:10:09.413Z,96383.20
2019-05-18T13:12:38.288Z,96388.42
2019-05-18T13:15:09.187Z,96388.76
2019-05-18T13:17:38.011Z,96387.59
2019-05-18T13:20:09.774Z,96380.91
2019-05-18T13:22:38.430Z,96379.35
2019-05-18T13:25:08.062Z,96375.45
2019-05-18T13:27:39.878Z,96370.19
2019-05-18T13:30:08.860Z,96371.49
2019-05-18T13:32:40.240Z,96372.05
2019-05-18T13:35:09.541Z,96373.06
2019-05-18T13:37:38.196Z,96370.56
2019-05-18T13:40:07.930Z,96367.34
2019-05-18T13:42:36.618Z,96364.98
2019-05-18T13:45:09.516Z,96360.85
2019-05-18T13:47:38.236Z,96358.66
2019-05-18T13:50:07.749Z,96356.94
2019-05-18T13:52:36.455Z,96348.83
2019-05-18T13:55:06.607Z,96345.36
2019-05-18T13:57:35.669Z,96341.70
2019-05-18T14:00:07.023Z,96339.86
2019-05-18T14:02:35.664Z,96343.09
2019-05-18T14:05:05.425Z,96339.86
2019-05-18T14:07:34.158Z,96338.80
2019-05-18T14:10:02.864Z,96342.53
2019-05-18T14:12:33.073Z,96335.45
2019-05-18T14:15:01.726Z,96338.45
2019-05-18T14:17:30.442Z,96336.73
2019-05-18T14:19:59.245Z,96337.02
2019-05-18T14:22:27.894Z,96338.11
2019-05-18T14:24:56.552Z,96332.94
2019-05-18T14:27:25.242Z,96333.19
2019-05-18T14:29:54.003Z,96342.55
2019-05-18T14:32:22.660Z,96340.38
2019-05-18T14:34:51.276Z,96335.03
2019-05-18T14:37:19.999Z,96335.61
2019-05-18T14:39:48.707Z,96324.60
2019-05-18T14:42:17.413Z,96328.70
2019-05-18T14:44:46.070Z,96335.03
2019-05-18T14:47:14.847Z,96330.84
2019-05-18T14:49:43.628Z,96323.52
2019-05-18T14:52:12.478Z,96332.68
2019-05-18T14:54:41.124Z,96332.47
2019-05-18T14:57:09.821Z,96329.74
2019-05-18T14:59:38.482Z,96330.94
2019-05-18T15:02:07.142Z,96329.28
2019-05-18T15:04:35.862Z,96332.52
2019-05-18T15:07:04.522Z,96332.67
2019-05-18T15:09:33.162Z,96330.33
2019-05-18T15:12:02.081Z,96334.02
2019-05-18T15:14:30.898Z,96325.34
2019-05-18T15:16:59.556Z,96324.87
2019-05-18T15:19:28.202Z,96325.34
2019-05-18T15:21:57.240Z,96333.41
2019-05-18T15:24:25.885Z,96331.91
2019-05-18T15:26:54.707Z,96324.91
2019-05-18T15:29:23.393Z,96330.42
2019-05-18T15:31:52.110Z,96323.56
2019-05-18T15:34:23.804Z,96325.34
2019-05-18T15:36:52.549Z,96322.87
2019-05-18T15:39:21.281Z,96320.89
2019-05-18T15:41:49.940Z,96323.92
2019-05-18T15:44:18.759Z,96327.90
2019-05-18T15:46:47.475Z,96332.88
2019-05-18T15:49:16.206Z,96321.59
2019-05-18T15:51:44.990Z,96323.91
2019-05-18T15:54:13.638Z,96333.58
2019-05-18T15:56:47.880Z,96326.23
2019-05-18T15:59:16.659Z,96328.72
2019-05-18T16:01:45.377Z,96334.55
2019-05-18T16:04:14.086Z,96338.05
2019-05-18T16:06:42.862Z,96339.40
2019-05-18T16:09:11.536Z,96333.70
2019-05-18T16:11:40.264Z,96339.70
2019-05-18T16:14:09.033Z,96340.19
2019-05-18T16:16:37.684Z,96341.67
2019-05-18T16:19:09.334Z,96339.80
2019-05-18T16:21:38.078Z,96342.83
2019-05-18T16:24:06.795Z,96339.94
2019-05-18T16:26:35.565Z,96343.47
2019-05-18T16:29:04.251Z,96343.13
2019-05-18T16:31:33.002Z,96343.97
2019-05-18T16:34:01.848Z,96347.12
2019-05-18T16:36:34.547Z,96347.95
2019-05-18T16:39:06.215Z,96349.89
2019-05-18T16:41:34.999Z,96349.86
2019-05-18T16:44:03.748Z,96357.18
2019-05-18T16:46:32.435Z,96352.62
2019-05-18T16:49:08.757Z,96353.30
2019-05-18T16:51:37.454Z,96357.59
2019-05-18T16:54:06.165Z,96359.42
2019-05-18T16:56:35.547Z,96363.27
2019-05-18T16:59:04.248Z,96359.72
2019-05-18T17:01:33.018Z,96361.20
2019-05-18T17:04:03.223Z,96360.70
2019-05-18T17:06:31.867Z,96362.52
2019-05-18T17:09:00.517Z,96356.27
2019-05-18T17:11:38.165Z,96365.33
2019-05-18T17:14:09.751Z,96369.08
2019-05-18T17:16:38.477Z,96373.34
2019-05-18T17:19:08.675Z,96368.85
2019-05-18T17:21:40.408Z,96371.47
2019-05-18T17:24:09.139Z,96377.39
2019-05-18T17:26:51.769Z,96377.20
2019-05-18T17:29:19.296Z,96378.17
2019-05-18T17:31:48.118Z,96387.98
2019-05-18T17:34:16.743Z,96385.69
2019-05-18T17:36:45.554Z,96389.89
2019-05-18T17:39:14.294Z,96391.41
2019-05-18T17:41:43.006Z,96392.50
2019-05-18T17:44:11.685Z,96397.24
2019-05-18T17:46:40.452Z,96393.69
2019-05-18T17:49:25.593Z,96398.67
2019-05-18T17:51:39.549Z,96399.95
2019-05-18T17:57:08.114Z,96406.42
2019-05-18T17:59:28.334Z,96419.19
2019-05-18T18:01:56.980Z,96425.64
2019-05-18T18:04:37.653Z,96426.66
2019-05-18T18:07:06.375Z,96431.76
2019-05-18T18:09:35.099Z,96428.19
2019-05-18T18:12:06.885Z,96425.30
2019-05-18T18:14:35.635Z,96432.33
2019-05-18T18:17:04.424Z,96443.39
2019-05-18T18:19:33.122Z,96442.66
2019-05-18T18:22:01.839Z,96449.40
2019-05-18T18:24:30.569Z,96461.00
2019-05-18T18:26:59.295Z,96464.48
2019-05-18T18:29:27.940Z,96469.25
2019-05-18T18:31:56.601Z,96465.74
2019-05-18T18:34:25.471Z,96469.59
2019-05-18T18:36:54.224Z,96468.63
2019-05-18T18:39:22.941Z,96472.52
2019-05-18T18:41:51.707Z,96477.16
2019-05-18T18:44:20.426Z,96492.88
2019-05-18T18:46:49.019Z,96492.88
2019-05-18T18:49:17.737Z,96497.22
2019-05-18T18:51:46.475Z,96496.17
2019-05-18T18:54:15.173Z,96499.00
2019-05-18T18:56:43.941Z,96502.53
2019-05-18T18:59:12.590Z,96502.03
2019-05-18T19:01:41.240Z,96509.08
2019-05-18T19:04:09.999Z,96507.20
2019-05-18T19:06:38.745Z,96510.03
2019-05-18T19:09:07.560Z,96509.97
2019-05-18T19:11:36.269Z,96517.55
2019-05-18T19:14:05.639Z,96509.75
2019-05-18T19:16:34.385Z,96505.94
2019-05-18T19:19:03.172Z,96506.58
2019-05-18T19:21:31.842Z,96501.45
2019-05-18T19:24:00.541Z,96505.67
2019-05-18T19:26:29.402Z,96510.27
2019-05-18T19:28:58.151Z,96512.54
2019-05-18T19:31:26.798Z,96515.81
2019-05-18T19:33:55.476Z,96515.87
2019-05-18T19:36:24.288Z,96514.40
2019-05-18T19:38:53.019Z,96514.86
2019-05-18T19:41:22.035Z,96515.44
2019-05-18T19:43:50.660Z,96511.16
2019-05-18T19:46:19.390Z,96507.22
2019-05-18T19:48:48.258Z,96515.03
2019-05-18T19:51:16.923Z,96520.17
2019-05-18T19:53:45.544Z,96516.84
2019-05-18T19:56:14.303Z,96522.47
2019-05-18T19:58:42.979Z,96525.22
2019-05-18T20:01:11.649Z,96521.86
2019-05-18T20:03:40.268Z,96525.83
2019-05-18T20:06:08.998Z,96539.26
2019-05-18T20:08:37.747Z,96530.87
2019-05-18T20:11:06.382Z,96517.41
2019-05-18T20:13:35.094Z,96528.10
2019-05-18T20:16:03.759Z,96538.88
2019-05-18T20:18:32.466Z,96538.88
2019-05-18T20:21:01.212Z,96540.16
2019-05-18T20:23:30.024Z,96543.42
2019-05-18T20:25:58.630Z,96545.46
2019-05-18T20:28:27.371Z,96550.78
2019-05-18T20:30:56.021Z,96550.78
2019-05-18T20:33:24.808Z,96551.90
2019-05-18T20:35:53.453Z,96555.47
2019-05-18T20:38:22.094Z,96537.45
2019-05-18T20:40:50.853Z,96549.90
2019-05-18T20:43:19.600Z,96544.83
2019-05-18T20:45:48.264Z,96543.17
2019-05-18T20:48:17.180Z,96538.05
2019-05-18T20:50:45.941Z,96538.25
2019-05-18T20:53:14.671Z,96538.25
2019-05-18T20:55:43.524Z,96543.27
2019-05-18T20:58:12.188Z,96517.14
2019-05-18T21:00:40.862Z,96517.14
2019-05-18T21:03:09.568Z,96550.58
2019-05-18T21:05:38.285Z,96552.50
2019-05-18T21:08:07.014Z,96559.75
2019-05-18T21:10:35.673Z,96558.69
2019-05-18T21:13:04.334Z,96557.63
2019-05-18T21:15:33.112Z,96555.66
2019-05-18T21:18:01.857Z,96543.21
2019-05-18T21:20:30.500Z,96554.39
2019-05-18T21:22:59.233Z,96558.53
2019-05-18T21:25:27.985Z,96558.53
2019-05-18T21:27:56.699Z,96565.50
2019-05-18T21:30:25.404Z,96558.73
2019-05-18T21:32:54.126Z,96556.58
2019-05-18T21:35:22.811Z,96561.95
2019-05-18T21:37:51.498Z,96556.58
2019-05-18T21:40:20.314Z,96561.39
2019-05-18T21:42:49.045Z,96560.25
2019-05-18T21:45:17.811Z,96566.61
2019-05-18T21:47:46.465Z,96557.17
2019-05-18T21:50:15.203Z,96559.20
2019-05-18T21:52:44.003Z,96568.84
2019-05-18T21:55:12.706Z,96575.82
2019-05-18T21:57:41.368Z,96570.32
2019-05-18T22:00:10.899Z,96573.18
2019-05-18T22:02:39.633Z,96566.05
2019-05-18T22:05:08.526Z,96561.26
2019-05-18T22:07:37.281Z,96568.14
2019-05-18T22:10:07.712Z,96566.22
2019-05-18T22:12:36.431Z,96574.88
2019-05-18T22:15:06.945Z,96578.36
2019-05-18T22:17:37.234Z,96582.44
2019-05-18T22:20:09.131Z,96586.42
2019-05-18T22:22:37.799Z,96584.20
2019-05-18T22:25:06.453Z,96576.91
2019-05-18T22:27:35.188Z,96568.63
2019-05-18T22:30:03.906Z,96562.25
2019-05-18T22:32:32.628Z,96568.86
2019-05-18T22:35:01.354Z,96562.80
2019-05-18T22:37:30.133Z,96571.11
2019-05-18T22:39:58.787Z,96571.11
2019-05-18T22:42:27.369Z,96564.44
2019-05-18T22:44:56.110Z,96562.05
2019-05-18T22:47:24.826Z,96570.80
2019-05-18T22:49:53.609Z,96574.89
2019-05-18T22:52:22.259Z,96570.78
2019-05-18T22:54:50.942Z,96555.89
2019-05-18T22:57:19.720Z,96555.89
2019-05-18T22:59:48.437Z,96577.80
2019-05-18T23:02:17.170Z,96570.81
2019-05-18T23:04:46.019Z,96566.34
2019-05-18T23:07:14.594Z,96566.34
2019-05-18T23:09:43.329Z,96550.58
2019-05-18T23:12:12.087Z,96576.00
2019-05-18T23:14:40.764Z,96582.31
2019-05-18T23:17:09.428Z,96582.31
2019-05-18T23:19:38.206Z,96583.17
2019-05-18T23:22:06.906Z,96583.62
2019-05-18T23:24:35.588Z,96576.91
2019-05-18T23:27:04.279Z,96576.02
2019-05-18T23:29:32.990Z,96577.91
2019-05-18T23:32:01.725Z,96577.27
2019-05-18T23:34:30.518Z,96577.32
2019-05-18T23:36:59.273Z,96576.22
2019-05-18T23:39:27.976Z,96572.55
2019-05-18T23:41:56.737Z,96576.48
2019-05-18T23:44:25.472Z,96573.55
2019-05-18T23:46:54.216Z,96565.23
2019-05-18T23:49:22.920Z,96567.42
2019-05-18T23:51:51.567Z,96565.71
2019-05-18T23:54:20.294Z,96567.59
2019-05-18T23:56:49.103Z,96573.34
2019-05-18T23:59:17.773Z,96572.68
